createdAt,value
2019-04-01T00:01:00.994Z,12.60
2019-04-01T00:04:04.964Z,13.50
2019-04-01T00:07:08.537Z,11.57
2019-04-01T00:10:12.157Z,13.07
2019-04-01T00:13:15.743Z,11.53
2019-04-01T00:16:19.310Z,12.70
2019-04-01T00:19:23.192Z,12.40
2019-04-01T00:22:27.051Z,16.10
2019-04-01T00:25:30.630Z,11.70
2019-04-01T00:28:34.420Z,13.17
2019-04-01T00:31:38.599Z,14.47
2019-04-01T00:34:42.186Z,13.10
2019-04-01T00:37:46.022Z,9.80
2019-04-01T00:40:49.589Z,11.40
2019-04-01T00:43:54.491Z,10.27
2019-04-01T00:46:58.379Z,9.43
2019-04-01T00:50:02.352Z,9.57
2019-04-01T00:53:06.289Z,10.37
2019-04-01T00:56:09.864Z,8.70
2019-04-01T00:59:13.801Z,8.87
2019-04-01T01:02:17.709Z,9.27
2019-04-01T01:05:21.319Z,9.30
2019-04-01T01:08:24.892Z,8.13
2019-04-01T01:11:28.808Z,9.40
2019-04-01T01:14:32.653Z,8.07
2019-04-01T01:17:36.289Z,7.97
2019-04-01T01:20:40.143Z,7.87
2019-04-01T01:23:43.723Z,6.60
2019-04-01T01:26:47.648Z,7.07
2019-04-01T01:29:51.232Z,12.30
2019-04-01T01:32:55.056Z,9.83
2019-04-01T01:35:58.637Z,6.70
2019-04-01T01:39:02.208Z,8.00
2019-04-01T01:42:06.086Z,6.97
2019-04-01T01:45:09.727Z,8.23
2019-04-01T01:48:13.616Z,9.83
2019-04-01T01:51:17.191Z,7.57
2019-04-01T01:54:20.789Z,7.43
2019-04-01T01:57:24.711Z,7.70
2019-04-01T02:00:29.248Z,7.20
2019-04-01T02:03:32.893Z,7.20
2019-04-01T02:06:36.763Z,7.47
2019-04-01T02:09:40.697Z,6.13
2019-04-01T02:12:44.573Z,8.30
2019-04-01T02:15:48.497Z,7.97
2019-04-01T02:18:52.626Z,6.50
2019-04-01T02:21:56.208Z,7.73
2019-04-01T02:24:59.795Z,7.83
2019-04-01T02:28:03.356Z,6.33
2019-04-01T02:31:06.959Z,7.17
2019-04-01T02:34:10.529Z,8.00
2019-04-01T02:37:14.161Z,6.17
2019-04-01T02:40:21.751Z,7.60
2019-04-01T02:43:23.567Z,5.93
2019-04-01T02:46:27.512Z,6.53
2019-04-01T02:49:31.068Z,7.73
2019-04-01T02:52:34.921Z,5.60
2019-04-01T02:55:38.568Z,6.67
2019-04-01T02:58:42.213Z,5.30
2019-04-01T03:01:45.767Z,5.50
2019-04-01T03:04:50.072Z,5.50
2019-04-01T03:07:54.088Z,4.30
2019-04-01T03:10:58.207Z,4.63
2019-04-01T03:14:02.101Z,5.33
2019-04-01T03:17:05.677Z,6.67
2019-04-01T03:20:09.341Z,4.67
2019-04-01T03:23:12.909Z,5.03
2019-04-01T03:26:16.472Z,5.40
2019-04-01T03:29:20.049Z,4.77
2019-04-01T03:32:24.071Z,6.17
2019-04-01T03:35:27.773Z,5.13
2019-04-01T03:38:31.416Z,3.73
2019-04-01T03:41:34.977Z,4.80
2019-04-01T03:44:38.549Z,4.47
2019-04-01T03:47:42.130Z,6.03
2019-04-01T03:50:45.696Z,4.93
2019-04-01T03:53:49.289Z,5.13
2019-04-01T03:56:52.862Z,6.07
2019-04-01T03:59:56.489Z,3.80
2019-04-01T04:03:00.378Z,4.23
2019-04-01T04:06:03.939Z,5.33
2019-04-01T04:09:07.517Z,4.53
2019-04-01T04:12:11.092Z,4.60
2019-04-01T04:15:14.855Z,6.17
2019-04-01T04:18:18.499Z,21.30
2019-04-01T04:21:24.170Z,74.87
2019-04-01T04:24:27.364Z,32.20
2019-04-01T04:27:30.933Z,19.27
2019-04-01T04:30:34.604Z,100.43
2019-04-01T04:33:38.207Z,89.87
2019-04-01T04:36:42.480Z,176.23
2019-04-01T04:39:46.070Z,92.07
2019-04-01T04:42:49.714Z,86.03
2019-04-01T04:45:53.308Z,92.60
2019-04-01T04:48:57.439Z,85.83
2019-04-01T04:52:04.399Z,84.33
2019-04-01T04:55:06.535Z,78.80
2019-04-01T04:58:10.106Z,87.30
2019-04-01T05:01:13.698Z,83.27
2019-04-01T05:04:17.277Z,65.87
2019-04-01T05:07:20.907Z,64.87
2019-04-01T05:10:24.568Z,63.50
2019-04-01T05:13:28.138Z,57.67
2019-04-01T05:16:31.731Z,57.87
2019-04-01T05:19:35.298Z,51.77
2019-04-01T05:22:39.395Z,54.10
2019-04-01T05:25:42.975Z,52.47
2019-04-01T05:28:47.526Z,49.33
2019-04-01T05:31:51.295Z,50.37
2019-04-01T05:34:56.443Z,45.30
2019-04-01T05:38:01.002Z,46.60
2019-04-01T05:41:04.763Z,40.70
2019-04-01T05:44:09.011Z,43.27
2019-04-01T05:47:12.854Z,39.87
2019-04-01T05:50:16.861Z,40.50
2019-04-01T05:53:20.520Z,38.33
2019-04-01T05:56:24.387Z,37.30
2019-04-01T05:59:28.522Z,38.13
2019-04-01T06:02:32.413Z,36.43
2019-04-01T06:05:35.991Z,35.70
2019-04-01T06:08:39.782Z,36.10
2019-04-01T06:11:43.438Z,34.13
2019-04-01T06:14:47.025Z,32.07
2019-04-01T06:17:50.950Z,34.53
2019-04-01T06:20:54.578Z,31.03
2019-04-01T06:23:59.130Z,32.37
2019-04-01T06:27:02.720Z,30.97
2019-04-01T06:30:06.409Z,29.37
2019-04-01T06:33:09.979Z,32.77
2019-04-01T06:36:14.119Z,30.43
2019-04-01T06:39:17.762Z,26.80
2019-04-01T06:42:21.741Z,26.13
2019-04-01T06:45:25.304Z,28.20
2019-04-01T06:48:28.868Z,27.30
2019-04-01T06:51:32.419Z,25.93
2019-04-01T06:54:35.991Z,27.30
2019-04-01T06:57:39.845Z,26.80
2019-04-01T07:00:43.398Z,23.83
2019-04-01T07:03:47.026Z,23.47
2019-04-01T07:06:50.582Z,24.80
2019-04-01T07:09:54.150Z,21.63
2019-04-01T07:12:58.081Z,23.20
2019-04-01T07:16:14.807Z,23.23
2019-04-01T07:19:07.013Z,22.47
2019-04-01T07:22:10.863Z,20.37
2019-04-01T07:25:14.692Z,19.40
2019-04-01T07:28:18.400Z,24.10
2019-04-01T07:31:22.053Z,22.53
2019-04-01T07:34:25.783Z,18.20
2019-04-01T07:37:29.340Z,18.57
2019-04-01T07:40:32.903Z,18.67
2019-04-01T07:43:36.466Z,18.13
2019-04-01T07:46:40.400Z,19.17
2019-04-01T07:49:44.323Z,18.30
2019-04-01T07:52:47.876Z,19.03
2019-04-01T07:55:51.442Z,17.70
2019-04-01T07:58:55.911Z,17.30
2019-04-01T08:01:59.852Z,15.10
2019-04-01T08:05:03.417Z,18.00
2019-04-01T08:08:07.241Z,15.13
2019-04-01T08:11:10.796Z,14.17
2019-04-01T08:14:14.346Z,15.57
2019-04-01T08:17:18.216Z,15.23
2019-04-01T08:20:21.848Z,16.03
2019-04-01T08:23:25.485Z,17.03
2019-04-01T08:26:29.055Z,14.10
2019-04-01T08:29:32.723Z,15.20
2019-04-01T08:32:37.217Z,15.33
2019-04-01T08:35:41.429Z,13.83
2019-04-01T08:38:45.272Z,15.57
2019-04-01T08:41:49.148Z,13.27
2019-04-01T08:44:52.874Z,14.73
2019-04-01T08:47:56.433Z,13.67
2019-04-01T08:50:59.993Z,12.60
2019-04-01T08:54:03.624Z,12.27
2019-04-01T08:57:07.479Z,12.80
2019-04-01T09:00:11.223Z,14.73
2019-04-01T09:03:14.786Z,13.87
2019-04-01T09:06:18.407Z,11.80
2019-04-01T09:09:24.171Z,12.97
2019-04-01T09:12:27.953Z,11.67
2019-04-01T09:15:31.973Z,11.27
2019-04-01T09:18:35.773Z,11.83
2019-04-01T09:21:39.355Z,10.43
2019-04-01T09:24:42.909Z,11.60
2019-04-01T09:27:46.791Z,10.57
2019-04-01T09:30:50.587Z,11.27
2019-04-01T09:33:54.432Z,11.93
2019-04-01T09:36:58.312Z,11.47
2019-04-01T09:40:01.873Z,9.70
2019-04-01T09:43:05.736Z,9.63
2019-04-01T09:46:09.306Z,10.60
2019-04-01T09:49:12.932Z,10.13
2019-04-01T09:52:16.485Z,9.37
2019-04-01T09:55:20.115Z,10.93
2019-04-01T09:58:23.672Z,8.37
2019-04-01T10:01:27.225Z,9.50
2019-04-01T10:04:30.791Z,10.13
2019-04-01T10:07:34.466Z,8.40
2019-04-01T10:10:38.175Z,9.57
2019-04-01T10:13:42.189Z,8.33
2019-04-01T10:16:45.737Z,9.10
2019-04-01T10:19:49.296Z,8.23
2019-04-01T10:22:53.411Z,10.90
2019-04-01T10:25:57.221Z,8.13
2019-04-01T10:29:00.769Z,7.60
2019-04-01T10:32:04.652Z,8.10
2019-04-01T10:35:08.574Z,9.00
2019-04-01T10:38:12.119Z,7.70
2019-04-01T10:41:15.673Z,9.47
2019-04-01T10:44:19.907Z,8.03
2019-04-01T10:47:23.482Z,7.20
2019-04-01T10:50:27.301Z,7.13
2019-04-01T10:53:30.900Z,6.83
2019-04-01T10:56:36.027Z,8.20
2019-04-01T10:59:40.132Z,6.73
2019-04-01T11:02:43.769Z,7.10
2019-04-01T11:05:47.508Z,7.83
2019-04-01T11:08:51.415Z,6.23
2019-04-01T11:11:55.955Z,6.77
2019-04-01T11:14:59.802Z,7.47
2019-04-01T11:18:03.360Z,7.77
2019-04-01T11:21:06.909Z,7.97
2019-04-01T11:24:11.063Z,6.57
2019-04-01T11:27:14.723Z,5.77
2019-04-01T11:30:18.756Z,5.27
2019-04-01T11:33:22.589Z,7.53
2019-04-01T11:36:26.526Z,5.53
2019-04-01T11:39:30.080Z,7.77
2019-04-01T11:42:33.627Z,5.93
2019-04-01T11:45:37.228Z,7.13
2019-04-01T11:48:41.032Z,5.57
2019-04-01T11:51:44.930Z,5.40
2019-04-01T11:54:48.526Z,5.10
2019-04-01T11:57:52.083Z,6.10
2019-04-01T12:00:55.640Z,6.17
2019-04-01T12:03:59.256Z,5.80
2019-04-01T12:07:02.818Z,5.03
2019-04-01T12:10:07.698Z,5.47
2019-04-01T12:13:11.487Z,5.53
2019-04-01T12:16:15.037Z,7.20
2019-04-01T12:19:18.592Z,4.87
2019-04-01T12:22:22.424Z,5.93
2019-04-01T12:25:25.962Z,5.00
2019-04-01T12:28:29.517Z,5.07
2019-04-01T12:31:33.418Z,7.67
2019-04-01T12:34:36.972Z,4.93
2019-04-01T12:37:40.523Z,4.97
2019-04-01T12:40:44.070Z,5.03
2019-04-01T12:43:47.628Z,4.73
2019-04-01T12:46:51.183Z,4.27
2019-04-01T12:49:55.034Z,4.87
2019-04-01T12:52:58.597Z,5.23
2019-04-01T12:56:02.468Z,4.13
2019-04-01T12:59:06.326Z,3.90
2019-04-01T13:02:09.871Z,4.97
2019-04-01T13:05:13.698Z,5.17
2019-04-01T13:08:17.313Z,4.90
2019-04-01T13:11:20.864Z,4.70
2019-04-01T13:14:24.673Z,5.10
2019-04-01T13:17:28.223Z,4.77
2019-04-01T13:20:37.904Z,4.03
2019-04-01T13:23:37.382Z,3.70
2019-04-01T13:26:40.930Z,4.20
2019-04-01T13:29:44.490Z,3.60
2019-04-01T13:32:48.823Z,4.93
2019-04-01T13:35:52.868Z,4.33
2019-04-01T13:38:56.724Z,4.07
2019-04-01T13:42:00.275Z,2.93
2019-04-01T13:45:03.848Z,5.07
2019-04-01T13:48:07.398Z,3.80
2019-04-01T13:51:10.957Z,4.13
2019-04-01T13:54:14.796Z,4.10
2019-04-01T13:57:18.345Z,4.03
2019-04-01T14:00:26.816Z,3.93
2019-04-01T14:03:28.380Z,3.07
2019-04-01T14:06:33.050Z,3.23
2019-04-01T14:09:36.610Z,3.30
2019-04-01T14:12:40.408Z,3.13
2019-04-01T14:15:43.974Z,3.33
2019-04-01T14:18:47.775Z,6.97
2019-04-01T14:21:52.096Z,3.13
2019-04-01T14:24:55.971Z,8.13
2019-04-01T14:27:59.756Z,6.23
2019-04-01T14:31:03.321Z,8.93
2019-04-01T14:34:12.979Z,6.53
2019-04-01T14:37:12.530Z,9.27
2019-04-01T14:40:18.192Z,18.30
2019-04-01T14:43:22.094Z,53.77
2019-04-01T14:46:25.664Z,123.67
2019-04-01T14:49:29.224Z,231.40
2019-04-01T14:52:33.204Z,215.13
2019-04-01T14:55:36.711Z,173.60
2019-04-01T14:58:40.277Z,162.83
2019-04-01T15:01:43.852Z,155.57
2019-04-01T15:04:47.405Z,153.97
2019-04-01T15:07:51.244Z,147.27
2019-04-01T15:10:54.823Z,142.90
2019-04-01T15:14:00.017Z,133.93
2019-04-01T15:17:04.220Z,136.97
2019-04-01T15:20:08.313Z,132.53
2019-04-01T15:23:11.874Z,124.40
2019-04-01T15:26:15.444Z,133.33
2019-04-01T15:29:18.999Z,97.77
2019-04-01T15:32:23.199Z,75.43
2019-04-01T15:35:26.908Z,84.30
2019-04-01T15:38:30.473Z,83.50
2019-04-01T15:41:34.035Z,90.63
2019-04-01T15:44:38.029Z,83.53
2019-04-01T15:47:42.430Z,78.43
2019-04-01T15:50:45.984Z,70.60
2019-04-01T15:53:49.548Z,73.97
2019-04-01T15:56:53.571Z,68.90
2019-04-01T15:59:57.475Z,68.90
2019-04-01T16:03:01.021Z,66.97
2019-04-01T16:06:07.541Z,62.63
2019-04-01T16:09:10.351Z,64.73
2019-04-01T16:12:16.053Z,57.57
2019-04-01T16:15:19.678Z,56.47
2019-04-01T16:18:23.233Z,87.67
2019-04-01T16:21:26.786Z,63.87
2019-04-01T16:24:30.354Z,58.13
2019-04-01T16:27:34.157Z,47.30
2019-04-01T16:30:37.727Z,48.00
2019-04-01T16:33:41.307Z,53.97
2019-04-01T16:36:45.200Z,45.53
2019-04-01T16:39:49.452Z,44.00
2019-04-01T16:42:55.689Z,39.63
2019-04-01T16:45:58.418Z,41.37
2019-04-01T16:49:02.264Z,43.13
2019-04-01T16:52:05.904Z,38.23
2019-04-01T16:55:11.334Z,36.97
2019-04-01T16:58:15.159Z,34.70
2019-04-01T17:01:18.791Z,29.43
2019-04-01T17:04:23.086Z,43.67
2019-04-01T17:07:26.894Z,15.13
2019-04-01T17:10:30.532Z,15.50
2019-04-01T17:13:34.093Z,10.90
2019-04-01T17:16:37.893Z,5.13
2019-04-01T17:19:42.383Z,4.50
2019-04-01T17:22:46.202Z,6.13
2019-04-01T17:25:50.017Z,4.90
2019-04-01T17:28:53.566Z,4.30
2019-04-01T17:31:57.464Z,5.30
2019-04-01T17:35:01.025Z,6.00
2019-04-01T17:38:04.659Z,4.60
2019-04-01T17:41:08.221Z,10.47
2019-04-01T17:44:11.864Z,183.00
2019-04-01T17:47:15.428Z,44.53
2019-04-01T17:50:19.306Z,39.17
2019-04-01T17:53:23.380Z,26.37
2019-04-01T17:56:26.946Z,10.63
2019-04-01T17:59:30.506Z,7.63
2019-04-01T18:02:34.142Z,4.43
2019-04-01T18:05:37.788Z,5.97
2019-04-01T18:08:41.350Z,2.70
2019-04-01T18:11:45.265Z,7.20
2019-04-01T18:14:48.818Z,5.50
2019-04-01T18:17:52.922Z,6.53
2019-04-01T18:20:56.753Z,4.70
2019-04-01T18:24:00.312Z,76.70
2019-04-01T18:27:04.216Z,100.13
2019-04-01T18:30:08.065Z,78.67
2019-04-01T18:33:11.648Z,65.53
2019-04-01T18:36:15.241Z,57.20
2019-04-01T18:39:18.797Z,53.07
2019-04-01T18:42:22.446Z,49.07
2019-04-01T18:45:26.077Z,50.10
2019-04-01T18:48:29.628Z,51.33
2019-04-01T18:51:36.419Z,46.37
2019-04-01T18:54:38.486Z,46.77
2019-04-01T18:57:42.689Z,46.00
2019-04-01T19:00:47.116Z,41.67
2019-04-01T19:03:51.394Z,18.30
2019-04-01T19:06:55.262Z,418.53
2019-04-01T19:10:06.130Z,120.13
2019-04-01T19:13:07.562Z,94.20
2019-04-01T19:16:12.725Z,87.40
2019-04-01T19:19:16.275Z,74.67
2019-04-01T19:22:20.074Z,68.47
2019-04-01T19:25:25.624Z,64.77
2019-04-01T19:28:29.568Z,65.13
2019-04-01T19:31:33.128Z,60.17
2019-04-01T19:34:36.719Z,65.27
2019-04-01T19:37:40.558Z,57.00
2019-04-01T19:40:44.200Z,57.53
2019-04-01T19:43:51.053Z,52.27
2019-04-01T19:46:53.624Z,56.43
2019-04-01T19:49:57.187Z,52.57
2019-04-01T19:53:02.702Z,56.67
2019-04-01T19:56:06.031Z,50.43
2019-04-01T19:59:09.909Z,52.00
2019-04-01T20:02:13.736Z,49.83
2019-04-01T20:05:17.309Z,45.27
2019-04-01T20:08:20.872Z,44.57
2019-04-01T20:11:24.434Z,49.70
2019-04-01T20:14:28.357Z,49.43
2019-04-01T20:17:31.911Z,42.77
2019-04-01T20:20:35.560Z,41.83
2019-04-01T20:23:39.462Z,40.10
2019-04-01T20:26:43.115Z,43.67
2019-04-01T20:29:46.678Z,42.50
2019-04-01T20:32:50.236Z,40.70
2019-04-01T20:35:53.879Z,37.10
2019-04-01T20:38:57.430Z,40.67
2019-04-01T20:42:01.068Z,50.67
2019-04-01T20:45:05.839Z,30.00
2019-04-01T20:48:09.704Z,64.30
2019-04-01T20:51:13.268Z,78.67
2019-04-01T20:54:16.879Z,87.43
2019-04-01T20:57:21.830Z,84.13
2019-04-01T21:00:25.691Z,80.90
2019-04-01T21:03:30.260Z,89.03
2019-04-01T21:06:34.159Z,76.30
2019-04-01T21:09:38.021Z,76.23
2019-04-01T21:12:41.588Z,83.77
2019-04-01T21:15:45.421Z,80.53
2019-04-01T21:18:49.252Z,71.30
2019-04-01T21:21:52.834Z,73.10
2019-04-01T21:24:57.248Z,69.27
2019-04-01T21:28:00.807Z,70.70
2019-04-01T21:31:05.378Z,67.60
2019-04-01T21:34:09.244Z,54.30
2019-04-01T21:37:12.812Z,49.33
2019-04-01T21:40:16.713Z,44.40
2019-04-01T21:43:20.937Z,44.57
2019-04-01T21:46:24.625Z,41.63
2019-04-01T21:49:28.255Z,42.53
2019-04-01T21:52:31.823Z,43.60
2019-04-01T21:55:35.377Z,46.93
2019-04-01T21:58:39.266Z,41.13
2019-04-01T22:01:42.892Z,38.23
2019-04-01T22:04:46.776Z,39.00
2019-04-01T22:07:50.337Z,37.57
2019-04-01T22:10:53.891Z,34.80
2019-04-01T22:13:57.457Z,31.70
2019-04-01T22:17:01.016Z,36.43
2019-04-01T22:20:05.479Z,33.53
2019-04-01T22:23:09.057Z,30.40
2019-04-01T22:26:12.668Z,30.90
2019-04-01T22:29:16.228Z,28.23
2019-04-01T22:32:20.198Z,28.10
2019-04-01T22:35:24.480Z,29.53
2019-04-01T22:38:28.051Z,26.50
2019-04-01T22:41:31.868Z,27.93
2019-04-01T22:44:35.685Z,27.43
2019-04-01T22:47:39.253Z,24.83
2019-04-01T22:50:43.093Z,25.10
2019-04-01T22:53:46.654Z,22.43
2019-04-01T22:56:50.312Z,22.63
2019-04-01T22:59:53.868Z,22.93
2019-04-01T23:02:57.446Z,22.00
2019-04-01T23:06:01.593Z,21.40
2019-04-01T23:09:06.811Z,21.37
2019-04-01T23:12:10.357Z,20.73
2019-04-01T23:15:14.273Z,19.20
2019-04-01T23:18:18.943Z,22.53
2019-04-01T23:21:22.516Z,18.83
2019-04-01T23:24:26.088Z,17.87
2019-04-01T23:27:29.969Z,19.17
2019-04-01T23:30:33.546Z,17.93
2019-04-01T23:33:37.106Z,17.53
2019-04-01T23:36:41.180Z,16.03
2019-04-01T23:39:45.046Z,17.17
2019-04-01T23:42:48.595Z,16.23
2019-04-01T23:45:52.480Z,15.87
2019-04-01T23:48:56.036Z,15.83
2019-04-01T23:51:59.601Z,15.17
2019-04-01T23:55:03.154Z,14.40
2019-04-01T23:58:06.710Z,14.10
